Time;durP1;ratioP1;P1;durP2;ratioP2;P2;SDS_P1;SDS_P2;PMS_P1;PMS_P2;Temp;Humidity;BMP_temperature;BMP_pressure;BME280_temperature;BME280_humidity;BME280_pressure;Samples;Min_cycle;Max_cycle;Signal;HPM_P1;HPM_P2
2022/07/31 00:00:11;;;;;;;0.77;0.40;;;23.70;41.50;;;;;;5053080;28;20419;-83
2022/07/31 00:02:38;;;;;;;0.65;0.40;;;23.70;41.80;;;;;;5051665;28;20409;-82
2022/07/31 00:05:06;;;;;;;0.70;0.40;;;23.70;41.60;;;;;;5055679;28;20404;-82
2022/07/31 00:07:32;;;;;;;0.40;0.40;;;23.70;41.70;;;;;;5055455;28;20474;-80
2022/07/31 00:09:59;;;;;;;0.93;0.47;;;23.70;42.00;;;;;;5059607;28;20436;-82
2022/07/31 00:12:26;;;;;;;0.70;0.40;;;23.70;41.60;;;;;;5044496;28;20506;-80
2022/07/31 00:14:53;;;;;;;0.93;0.40;;;23.60;41.70;;;;;;5051826;28;20420;-82
2022/07/31 00:17:20;;;;;;;0.77;0.30;;;23.60;41.30;;;;;;5053369;28;20475;-83
2022/07/31 00:19:47;;;;;;;1.00;0.50;;;23.60;41.00;;;;;;5059839;28;20396;-84
2022/07/31 00:22:14;;;;;;;0.70;0.30;;;23.60;40.60;;;;;;5056120;28;20409;-80
2022/07/31 00:24:41;;;;;;;0.50;0.40;;;23.60;40.20;;;;;;5065510;28;20467;-83
2022/07/31 00:27:09;;;;;;;0.50;0.40;;;23.60;40.20;;;;;;5061555;28;20434;-80
2022/07/31 00:29:37;;;;;;;0.60;0.40;;;23.70;40.40;;;;;;5053341;28;20440;-82
2022/07/31 00:32:04;;;;;;;0.75;0.30;;;23.70;39.60;;;;;;5055163;28;20408;-83
2022/07/31 00:34:31;;;;;;;1.60;0.40;;;23.70;39.40;;;;;;5051208;28;20954;-83
2022/07/31 00:36:58;;;;;;;0.90;0.40;;;23.70;39.40;;;;;;5053549;28;20416;-81
2022/07/31 00:39:25;;;;;;;0.40;0.40;;;23.70;39.70;;;;;;5050566;28;20408;-80
2022/07/31 00:41:53;;;;;;;0.98;0.30;;;23.70;39.10;;;;;;5054727;28;20405;-80
2022/07/31 00:44:20;;;;;;;1.20;0.30;;;23.70;39.20;;;;;;5054149;28;20935;-81
2022/07/31 00:46:48;;;;;;;0.38;0.30;;;23.70;39.30;;;;;;5049572;28;20413;-81
2022/07/31 00:49:15;;;;;;;0.75;0.52;;;23.70;39.10;;;;;;5053920;28;20420;-83
2022/07/31 00:51:42;;;;;;;1.10;0.30;;;23.70;38.10;;;;;;5052034;28;20408;-84
2022/07/31 00:54:09;;;;;;;0.85;0.40;;;23.80;38.10;;;;;;5052247;28;20904;-83
2022/07/31 00:56:49;;;;;;;0.40;0.38;;;23.80;38.30;;;;;;5051624;28;20412;-81
2022/07/31 00:59:16;;;;;;;0.90;0.40;;;23.80;37.70;;;;;;5059697;28;20406;-83
2022/07/31 01:01:50;;;;;;;0.50;0.40;;;23.90;37.70;;;;;;5047971;28;20427;-85
2022/07/31 01:04:18;;;;;;;0.65;0.32;;;23.90;37.00;;;;;;5060150;28;20769;-80
2022/07/31 01:06:46;;;;;;;0.80;0.30;;;23.90;37.20;;;;;;5054476;28;20443;-83
2022/07/31 01:09:14;;;;;;;0.50;0.30;;;24.00;37.20;;;;;;5093498;28;20466;-80
2022/07/31 01:11:52;;;;;;;0.50;0.28;;;24.00;37.40;;;;;;5056275;28;20805;-84
2022/07/31 01:14:23;;;;;;;1.30;0.30;;;23.90;37.40;;;;;;5054587;28;20409;-81
2022/07/31 01:16:52;;;;;;;0.63;0.30;;;24.00;36.90;;;;;;5051377;28;20420;-83
2022/07/31 01:19:40;;;;;;;1.07;0.40;;;24.00;37.10;;;;;;5050664;28;20438;-80
2022/07/31 01:22:20;;;;;;;0.50;0.30;;;24.00;37.10;;;;;;5050660;28;20409;-81
2022/07/31 01:25:25;;;;;;;0.60;0.30;;;23.90;37.00;;;;;;5081663;28;20408;-83
2022/07/31 01:28:05;;;;;;;0.63;0.30;;;23.90;37.00;;;;;;5050559;28;20408;-83
2022/07/31 01:31:14;;;;;;;1.10;0.30;;;23.90;36.50;;;;;;5052443;28;20417;-80
2022/07/31 01:34:09;;;;;;;0.70;0.30;;;23.90;37.00;;;;;;5067802;28;20474;-80
2022/07/31 01:36:43;;;;;;;0.80;0.55;;;23.80;36.80;;;;;;5077198;28;20391;-80
2022/07/31 01:39:11;;;;;;;0.85;0.28;;;23.90;36.70;;;;;;5077214;28;20437;-80
2022/07/31 01:41:44;;;;;;;0.50;0.30;;;23.90;36.80;;;;;;5070558;28;20407;-80
2022/07/31 01:44:14;;;;;;;1.17;0.40;;;23.90;36.60;;;;;;5075429;28;20415;-81
2022/07/31 01:46:43;;;;;;;1.00;0.30;;;23.90;36.00;;;;;;5072230;28;20420;-82
2022/07/31 01:49:11;;;;;;;0.90;0.50;;;23.90;36.20;;;;;;5072659;28;20478;-83
2022/07/31 01:51:41;;;;;;;0.80;0.40;;;23.90;36.20;;;;;;5071964;28;20434;-81
2022/07/31 01:54:10;;;;;;;0.80;0.35;;;24.00;35.60;;;;;;5075250;28;20419;-80
2022/07/31 01:56:38;;;;;;;0.70;0.30;;;24.00;35.80;;;;;;5075951;28;20963;-80
2022/07/31 01:59:07;;;;;;;0.80;0.30;;;24.00;35.80;;;;;;5073240;28;20909;-81
2022/07/31 02:01:49;;;;;;;0.90;0.40;;;24.00;35.80;;;;;;5066734;28;20422;-82
2022/07/31 02:04:19;;;;;;;1.10;0.30;;;24.00;35.90;;;;;;5075653;28;20464;-84
2022/07/31 02:06:48;;;;;;;0.90;0.30;;;24.00;35.40;;;;;;5074690;28;20402;-81
2022/07/31 02:09:18;;;;;;;1.20;0.30;;;24.00;35.50;;;;;;5070999;28;20411;-84
2022/07/31 02:11:46;;;;;;;0.40;0.30;;;24.00;35.20;;;;;;5076855;28;20415;-81
2022/07/31 02:14:35;;;;;;;0.55;0.30;;;24.00;34.90;;;;;;5074416;28;20414;-81
2022/07/31 02:17:02;;;;;;;0.80;0.30;;;24.00;35.40;;;;;;5082221;28;20395;-81
2022/07/31 02:19:29;;;;;;;0.35;0.30;;;24.00;35.20;;;;;;5068455;28;20876;-81
2022/07/31 02:21:58;;;;;;;0.47;0.30;;;24.00;35.20;;;;;;5065204;28;20399;-84
2022/07/31 02:24:27;;;;;;;0.60;0.30;;;24.00;35.20;;;;;;5063611;28;20405;-82
2022/07/31 02:26:56;;;;;;;1.25;0.40;;;24.00;35.20;;;;;;5071533;28;20395;-81
2022/07/31 02:29:24;;;;;;;1.33;0.30;;;24.00;36.30;;;;;;5077273;28;20463;-80
2022/07/31 02:31:54;;;;;;;1.20;0.30;;;23.90;35.70;;;;;;5075146;28;20442;-81
2022/07/31 02:34:30;;;;;;;0.40;0.40;;;23.90;35.40;;;;;;5075096;28;20409;-84
2022/07/31 02:36:59;;;;;;;0.45;0.20;;;23.90;35.10;;;;;;5068961;28;20394;-83
2022/07/31 02:39:28;;;;;;;0.63;0.30;;;23.90;35.10;;;;;;5063624;28;20493;-84
2022/07/31 02:41:59;;;;;;;0.85;0.30;;;23.90;35.20;;;;;;5100922;28;20423;-81
2022/07/31 02:44:31;;;;;;;1.25;0.40;;;23.90;35.60;;;;;;5072657;28;20407;-82
2022/07/31 02:47:01;;;;;;;0.98;0.30;;;23.90;35.40;;;;;;5074519;28;20464;-81
2022/07/31 02:49:28;;;;;;;1.10;0.30;;;23.80;35.40;;;;;;5077542;28;20407;-83
2022/07/31 02:51:56;;;;;;;0.90;0.32;;;23.80;35.20;;;;;;5073388;28;20410;-81
2022/07/31 02:54:24;;;;;;;0.60;0.20;;;23.80;35.60;;;;;;5076884;28;20493;-84
2022/07/31 02:56:52;;;;;;;0.80;0.35;;;23.80;35.40;;;;;;5070090;28;20940;-81
2022/07/31 02:59:21;;;;;;;0.40;0.30;;;23.80;35.60;;;;;;5073217;28;20472;-81
2022/07/31 03:01:48;;;;;;;1.30;0.40;;;23.70;35.80;;;;;;5075589;28;20468;-82
2022/07/31 03:04:14;;;;;;;1.23;0.30;;;23.70;36.10;;;;;;5086651;28;20407;-82
2022/07/31 03:06:42;;;;;;;0.80;0.30;;;23.60;35.60;;;;;;5082361;28;20406;-84
2022/07/31 03:09:09;;;;;;;1.23;0.30;;;23.60;35.70;;;;;;5074218;28;20452;-81
2022/07/31 03:11:36;;;;;;;1.05;0.25;;;23.60;35.40;;;;;;5072752;28;20833;-84
2022/07/31 03:14:04;;;;;;;0.65;0.25;;;23.60;35.10;;;;;;5077873;28;20395;-82
2022/07/31 03:16:32;;;;;;;0.40;0.30;;;23.60;35.50;;;;;;5083035;28;20407;-81
2022/07/31 03:19:01;;;;;;;0.90;0.30;;;23.60;35.60;;;;;;5072862;28;20415;-83
2022/07/31 03:21:29;;;;;;;0.80;0.30;;;23.60;35.50;;;;;;5074029;28;20407;-82
2022/07/31 03:23:57;;;;;;;1.75;0.38;;;23.60;35.80;;;;;;5084478;28;20403;-81
2022/07/31 03:26:24;;;;;;;1.38;0.40;;;23.60;35.60;;;;;;5079927;28;20415;-84
2022/07/31 03:28:52;;;;;;;1.20;0.40;;;23.60;35.60;;;;;;5075611;28;20391;-83
2022/07/31 03:31:19;;;;;;;1.23;0.40;;;23.60;35.80;;;;;;5077901;28;20418;-83
2022/07/31 03:33:46;;;;;;;0.90;0.30;;;23.60;35.60;;;;;;5068622;28;20470;-84
2022/07/31 03:36:13;;;;;;;0.40;0.30;;;23.60;35.70;;;;;;5073625;28;20890;-83
2022/07/31 03:38:40;;;;;;;1.00;0.40;;;23.60;35.80;;;;;;5077686;28;20441;-81
2022/07/31 03:41:12;;;;;;;0.50;0.30;;;23.60;35.30;;;;;;5068768;28;20419;-82
2022/07/31 03:43:40;;;;;;;1.10;0.30;;;23.60;35.50;;;;;;5076015;28;20410;-81
2022/07/31 03:46:15;;;;;;;1.45;0.50;;;23.60;35.70;;;;;;5074379;28;20411;-81
2022/07/31 03:48:43;;;;;;;0.80;0.35;;;23.60;35.60;;;;;;5073064;28;20797;-84
2022/07/31 03:51:11;;;;;;;0.40;0.32;;;23.60;35.80;;;;;;5076553;28;20481;-84
2022/07/31 03:53:39;;;;;;;0.85;0.40;;;23.50;35.70;;;;;;5074521;28;20410;-81
2022/07/31 03:56:06;;;;;;;0.93;0.50;;;23.50;35.90;;;;;;5081328;28;20397;-81
2022/07/31 03:58:33;;;;;;;2.50;0.40;;;23.50;35.50;;;;;;5072269;28;20425;-83
2022/07/31 04:01:05;;;;;;;1.45;0.30;;;23.50;35.40;;;;;;5075307;28;20446;-83
2022/07/31 04:03:38;;;;;;;0.93;0.40;;;23.60;35.40;;;;;;5085277;28;20401;-82
2022/07/31 04:06:05;;;;;;;1.00;0.32;;;23.60;35.50;;;;;;5078928;28;20433;-84
2022/07/31 04:08:33;;;;;;;1.10;0.35;;;23.60;35.30;;;;;;5079455;28;20411;-83
2022/07/31 04:11:00;;;;;;;0.60;0.30;;;23.60;35.30;;;;;;5075718;28;20403;-81
2022/07/31 04:13:27;;;;;;;0.22;0.20;;;23.60;35.30;;;;;;5080939;28;20433;-82
2022/07/31 04:15:54;;;;;;;1.50;0.40;;;23.50;35.40;;;;;;5077954;28;20407;-83
2022/07/31 04:18:21;;;;;;;0.55;0.30;;;23.50;35.40;;;;;;5070099;28;20430;-83
2022/07/31 04:20:47;;;;;;;0.50;0.30;;;23.50;35.30;;;;;;5078433;28;20429;-82
2022/07/31 04:23:15;;;;;;;1.47;0.40;;;23.50;35.50;;;;;;5070737;28;20457;-83
2022/07/31 04:25:42;;;;;;;0.47;0.25;;;23.40;35.90;;;;;;5073768;28;20406;-82
2022/07/31 04:28:09;;;;;;;0.65;0.30;;;23.50;35.20;;;;;;5069203;28;20406;-84
2022/07/31 04:30:37;;;;;;;1.90;0.40;;;23.40;35.50;;;;;;5081062;28;20407;-81
2022/07/31 04:33:03;;;;;;;1.00;0.50;;;23.40;35.30;;;;;;5070337;28;20402;-81
2022/07/31 04:35:30;;;;;;;1.30;0.30;;;23.50;35.20;;;;;;5072189;28;20894;-84
2022/07/31 04:37:57;;;;;;;1.30;0.43;;;23.50;35.70;;;;;;5080465;28;20429;-83
2022/07/31 04:40:26;;;;;;;0.40;0.40;;;23.50;35.60;;;;;;5066483;28;20393;-81
2022/07/31 04:42:53;;;;;;;1.50;0.50;;;23.40;35.60;;;;;;5076119;28;20403;-81
2022/07/31 04:45:20;;;;;;;1.00;0.50;;;23.40;35.80;;;;;;5068211;28;20410;-82
2022/07/31 04:47:47;;;;;;;0.40;0.30;;;23.30;36.10;;;;;;5070778;28;20403;-82
2022/07/31 04:50:14;;;;;;;1.30;0.55;;;23.30;36.30;;;;;;5075874;28;20407;-81
2022/07/31 04:52:41;;;;;;;1.00;0.30;;;23.30;36.20;;;;;;5071489;28;20399;-84
2022/07/31 04:55:08;;;;;;;1.13;0.30;;;23.30;36.10;;;;;;5068171;28;20469;-82
2022/07/31 04:57:35;;;;;;;1.40;0.30;;;23.30;36.20;;;;;;5077190;28;20886;-83
2022/07/31 05:00:05;;;;;;;0.60;0.35;;;23.30;36.30;;;;;;5073846;28;20411;-82
2022/07/31 05:02:32;;;;;;;0.47;0.40;;;23.20;36.40;;;;;;5070950;28;20462;-81
2022/07/31 05:04:59;;;;;;;1.45;0.35;;;23.30;36.50;;;;;;5073103;28;20407;-82
2022/07/31 05:07:26;;;;;;;0.73;0.50;;;23.30;36.50;;;;;;5071305;28;20423;-84
2022/07/31 05:09:55;;;;;;;1.02;0.22;;;23.30;36.20;;;;;;5070758;28;20419;-81
2022/07/31 05:12:22;;;;;;;0.70;0.30;;;23.30;36.50;;;;;;5070873;28;20418;-83
2022/07/31 05:14:49;;;;;;;1.10;0.40;;;23.30;36.50;;;;;;5075310;28;20423;-83
2022/07/31 05:17:16;;;;;;;0.60;0.30;;;23.40;36.00;;;;;;5062205;28;20408;-83
2022/07/31 05:19:43;;;;;;;0.45;0.22;;;23.40;36.40;;;;;;5071317;28;21638;-82
2022/07/31 05:22:10;;;;;;;1.60;0.40;;;23.40;36.50;;;;;;5070712;28;20398;-84
2022/07/31 05:24:37;;;;;;;1.27;0.40;;;23.40;36.50;;;;;;5072435;28;20807;-84
2022/07/31 05:27:04;;;;;;;1.25;0.30;;;23.40;36.60;;;;;;5074071;28;20475;-82
2022/07/31 05:29:32;;;;;;;0.60;0.30;;;23.40;36.40;;;;;;5081957;28;20411;-81
2022/07/31 05:31:59;;;;;;;1.10;0.32;;;23.40;36.50;;;;;;5073806;28;20431;-81
2022/07/31 05:34:36;;;;;;;0.85;0.30;;;23.40;36.30;;;;;;5073411;28;20909;-83
2022/07/31 05:37:03;;;;;;;1.20;0.37;;;23.40;36.70;;;;;;5075081;28;20407;-84
2022/07/31 05:39:30;;;;;;;2.78;0.60;;;23.40;36.20;;;;;;5079121;28;20414;-82
2022/07/31 05:41:57;;;;;;;1.83;0.40;;;23.50;36.10;;;;;;5071777;28;20415;-82
2022/07/31 05:44:24;;;;;;;0.70;0.40;;;23.50;36.00;;;;;;5077502;28;20786;-82
2022/07/31 05:46:51;;;;;;;1.25;0.40;;;23.60;35.40;;;;;;5070987;28;20415;-80
2022/07/31 05:49:17;;;;;;;1.20;0.40;;;23.70;35.30;;;;;;5074122;28;20399;-81
2022/07/31 05:51:45;;;;;;;0.60;0.40;;;23.80;35.40;;;;;;5069533;28;20415;-83
2022/07/31 05:54:12;;;;;;;1.40;0.30;;;23.80;35.20;;;;;;5073447;28;20478;-81
2022/07/31 05:56:39;;;;;;;0.90;0.30;;;23.80;35.50;;;;;;5072599;28;20774;-82
2022/07/31 05:59:08;;;;;;;1.17;0.30;;;23.80;35.50;;;;;;5077896;28;20492;-83
2022/07/31 06:01:35;;;;;;;0.70;0.20;;;23.80;35.50;;;;;;5071278;28;20672;-82
2022/07/31 06:04:03;;;;;;;0.50;0.40;;;23.90;36.30;;;;;;5070339;28;20433;-81
2022/07/31 06:06:29;;;;;;;1.10;0.30;;;23.90;35.60;;;;;;5066322;28;20528;-81
2022/07/31 06:08:56;;;;;;;2.40;0.40;;;23.90;35.50;;;;;;5072623;28;20407;-83
2022/07/31 06:11:30;;;;;;;0.70;0.30;;;24.00;35.00;;;;;;5075228;28;20421;-82
2022/07/31 06:13:57;;;;;;;1.65;0.50;;;24.10;35.10;;;;;;5069400;28;20407;-82
2022/07/31 06:16:24;;;;;;;0.57;0.30;;;24.10;35.00;;;;;;5072048;28;20422;-82
2022/07/31 06:18:51;;;;;;;1.20;0.30;;;24.20;34.90;;;;;;5074707;28;20422;-81
2022/07/31 06:21:18;;;;;;;1.42;0.40;;;24.20;34.80;;;;;;5084722;28;20395;-82
2022/07/31 06:23:44;;;;;;;0.70;0.30;;;24.30;34.80;;;;;;5074192;28;20402;-83
2022/07/31 06:26:11;;;;;;;0.90;0.30;;;24.30;35.00;;;;;;5063120;28;20400;-83
2022/07/31 06:28:38;;;;;;;0.40;0.30;;;24.40;34.80;;;;;;5072468;28;20484;-84
2022/07/31 06:31:19;;;;;;;1.90;0.40;;;24.40;35.00;;;;;;5077010;28;20406;-81
2022/07/31 06:33:47;;;;;;;1.00;0.30;;;24.40;34.60;;;;;;5079753;28;20767;-83
2022/07/31 06:36:16;;;;;;;0.60;0.30;;;24.50;35.20;;;;;;5072641;28;20418;-82
2022/07/31 06:38:43;;;;;;;1.20;0.30;;;24.50;35.20;;;;;;5067025;28;20480;-83
2022/07/31 06:41:10;;;;;;;0.82;0.20;;;24.60;34.30;;;;;;5073527;28;20460;-82
2022/07/31 06:43:37;;;;;;;0.60;0.30;;;24.60;35.10;;;;;;5075275;28;20407;-82
2022/07/31 06:46:04;;;;;;;0.30;0.20;;;24.70;34.70;;;;;;5075698;28;20399;-83
2022/07/31 06:48:31;;;;;;;2.88;0.38;;;24.80;35.40;;;;;;5077445;28;20433;-80
2022/07/31 06:50:57;;;;;;;1.25;0.30;;;24.90;34.40;;;;;;5078820;28;20390;-80
2022/07/31 06:53:44;;;;;;;0.50;0.33;;;24.90;34.80;;;;;;5074816;28;20434;-83
2022/07/31 06:56:11;;;;;;;2.10;0.40;;;25.10;34.00;;;;;;5072583;28;20385;-82
2022/07/31 06:58:38;;;;;;;0.50;0.20;;;25.20;34.10;;;;;;5075042;28;20411;-80
2022/07/31 07:01:05;;;;;;;0.50;0.20;;;25.30;34.10;;;;;;5078788;28;20487;-81
2022/07/31 07:03:32;;;;;;;1.00;0.32;;;25.30;34.40;;;;;;5075313;28;20394;-83
2022/07/31 07:05:59;;;;;;;1.13;0.40;;;25.40;35.00;;;;;;5082787;28;20403;-83
2022/07/31 07:08:26;;;;;;;1.83;0.40;;;25.50;34.30;;;;;;5074218;28;20773;-83
2022/07/31 07:10:54;;;;;;;0.90;0.35;;;25.50;33.90;;;;;;5068709;28;20433;-82
2022/07/31 07:13:21;;;;;;;1.17;0.40;;;25.70;33.50;;;;;;5076743;28;20459;-81
2022/07/31 07:15:49;;;;;;;0.83;0.43;;;25.80;32.50;;;;;;5074643;28;20902;-84
2022/07/31 07:18:17;;;;;;;1.70;0.40;;;25.80;32.10;;;;;;5075878;28;20399;-82
2022/07/31 07:20:43;;;;;;;2.60;0.40;;;25.90;33.10;;;;;;5075323;28;20890;-83
2022/07/31 07:23:10;;;;;;;0.40;0.30;;;25.90;34.20;;;;;;5069633;28;20894;-83
2022/07/31 07:25:37;;;;;;;1.00;0.30;;;26.10;33.20;;;;;;5065281;28;20403;-83
2022/07/31 07:28:04;;;;;;;2.20;0.30;;;26.30;32.90;;;;;;5069342;28;20790;-81
2022/07/31 07:30:31;;;;;;;2.85;0.30;;;26.30;33.70;;;;;;5072185;28;20403;-83
2022/07/31 07:32:58;;;;;;;0.90;0.30;;;26.40;33.50;;;;;;5068722;28;20419;-83
2022/07/31 07:35:25;;;;;;;0.90;0.30;;;26.50;33.30;;;;;;5078248;28;20422;-83
2022/07/31 07:37:56;;;;;;;0.40;0.30;;;26.70;33.30;;;;;;5076349;28;20417;-83
2022/07/31 07:40:24;;;;;;;0.60;0.30;;;26.90;32.40;;;;;;5077067;28;20480;-83
2022/07/31 07:42:52;;;;;;;1.10;0.40;;;27.10;32.90;;;;;;5073417;28;20930;-82
2022/07/31 07:45:19;;;;;;;1.08;0.30;;;27.30;32.10;;;;;;5077254;28;20492;-81
2022/07/31 07:47:46;;;;;;;0.60;0.30;;;27.50;32.30;;;;;;5076311;28;20488;-83
2022/07/31 07:50:32;;;;;;;0.40;0.20;;;27.60;31.90;;;;;;5077573;28;20843;-84
2022/07/31 07:52:59;;;;;;;0.70;0.30;;;27.80;32.20;;;;;;5070267;28;20463;-83
2022/07/31 07:55:27;;;;;;;0.40;0.30;;;28.00;31.30;;;;;;5072640;28;20488;-83
2022/07/31 07:58:04;;;;;;;0.60;0.25;;;28.20;30.90;;;;;;5079484;28;20429;-81
2022/07/31 08:00:37;;;;;;;0.93;0.30;;;28.40;30.60;;;;;;5079532;28;20410;-84
2022/07/31 08:03:03;;;;;;;0.90;0.30;;;28.50;31.20;;;;;;5080481;28;20442;-84
2022/07/31 08:05:51;;;;;;;0.90;0.22;;;28.70;30.30;;;;;;5072359;28;20437;-84
2022/07/31 08:08:18;;;;;;;0.60;0.30;;;28.80;29.70;;;;;;5078758;28;20414;-81
2022/07/31 08:10:45;;;;;;;0.60;0.20;;;28.90;29.40;;;;;;5080205;28;21106;-84
2022/07/31 08:13:11;;;;;;;0.68;0.28;;;29.00;29.20;;;;;;5079595;28;20442;-82
2022/07/31 08:15:38;;;;;;;1.48;0.32;;;29.10;30.80;;;;;;5073170;28;20968;-83
2022/07/31 08:18:05;;;;;;;1.10;0.30;;;29.30;29.40;;;;;;5112947;28;20476;-83
2022/07/31 08:20:32;;;;;;;0.68;0.40;;;29.30;29.50;;;;;;5109389;28;20891;-83
2022/07/31 08:22:59;;;;;;;0.30;0.20;;;29.40;30.80;;;;;;5074634;28;20401;-84
2022/07/31 08:25:26;;;;;;;0.70;0.30;;;29.60;30.00;;;;;;5075291;28;20908;-82
2022/07/31 08:27:57;;;;;;;0.30;0.30;;;29.80;29.50;;;;;;5065138;28;20789;-84
2022/07/31 08:30:25;;;;;;;0.45;0.30;;;30.00;29.10;;;;;;5070704;28;20892;-85
2022/07/31 08:32:56;;;;;;;0.38;0.30;;;30.10;29.10;;;;;;5073697;28;20449;-84
2022/07/31 08:35:24;;;;;;;0.80;0.30;;;30.20;29.60;;;;;;5065477;28;20414;-84
2022/07/31 08:37:51;;;;;;;0.70;0.40;;;30.30;29.80;;;;;;5066332;28;20407;-85
2022/07/31 08:40:29;;;;;;;1.63;0.30;;;30.40;29.70;;;;;;5076353;28;20444;-80
2022/07/31 08:42:58;;;;;;;0.40;0.30;;;30.40;29.60;;;;;;5102784;27;20406;-84
2022/07/31 08:45:27;;;;;;;0.30;0.20;;;30.50;29.90;;;;;;5069016;28;20456;-84
2022/07/31 08:47:56;;;;;;;0.40;0.30;;;30.50;29.60;;;;;;5074291;28;20456;-83
2022/07/31 08:50:24;;;;;;;0.50;0.32;;;30.60;30.20;;;;;;5077470;28;20468;-83
2022/07/31 08:52:53;;;;;;;1.10;0.30;;;30.80;30.10;;;;;;5067853;28;20434;-81
2022/07/31 08:55:21;;;;;;;0.80;0.38;;;30.90;29.50;;;;;;5072223;28;20437;-82
2022/07/31 08:58:08;;;;;;;0.60;0.30;;;30.90;29.70;;;;;;5073741;28;20441;-81
2022/07/31 09:00:36;;;;;;;1.30;0.30;;;30.90;29.90;;;;;;5070025;28;20496;-83
2022/07/31 09:03:03;;;;;;;0.30;0.30;;;30.90;30.00;;;;;;5073953;28;20460;-84
2022/07/31 09:05:34;;;;;;;0.60;0.40;;;30.90;30.20;;;;;;5071587;28;20449;-83
2022/07/31 09:08:08;;;;;;;0.82;0.30;;;30.90;30.00;;;;;;5064592;28;20503;-84
2022/07/31 09:10:41;;;;;;;0.90;0.40;;;31.00;30.00;;;;;;5067807;28;20418;-83
2022/07/31 09:13:18;;;;;;;0.80;0.40;;;31.20;29.80;;;;;;5067374;28;20894;-84
2022/07/31 09:15:45;;;;;;;0.70;0.30;;;31.40;29.70;;;;;;5065452;28;20435;-83
2022/07/31 09:18:20;;;;;;;1.57;0.43;;;31.40;29.60;;;;;;5066833;28;20429;-83
2022/07/31 09:20:59;;;;;;;2.72;0.60;;;31.50;28.10;;;;;;5062821;28;20407;-83
2022/07/31 09:23:28;;;;;;;3.10;0.90;;;31.60;29.60;;;;;;5064579;28;20410;-84
2022/07/31 09:25:57;;;;;;;0.90;0.40;;;31.70;29.10;;;;;;5067907;28;20419;-84
2022/07/31 09:28:44;;;;;;;1.30;0.40;;;31.80;27.70;;;;;;5070245;28;20447;-85
2022/07/31 09:31:12;;;;;;;0.80;0.30;;;31.80;28.50;;;;;;5066211;28;20411;-83
2022/07/31 09:33:45;;;;;;;0.30;0.30;;;31.90;29.00;;;;;;5069035;28;20768;-80
2022/07/31 09:36:13;;;;;;;0.77;0.28;;;31.90;28.60;;;;;;5101166;28;20886;-82
2022/07/31 09:38:42;;;;;;;0.43;0.38;;;32.00;28.00;;;;;;5069806;28;20434;-81
2022/07/31 09:41:09;;;;;;;0.90;0.50;;;32.20;27.00;;;;;;5100096;28;20415;-83
2022/07/31 09:43:59;;;;;;;0.68;0.38;;;32.20;27.70;;;;;;5067958;28;20916;-84
2022/07/31 09:46:36;;;;;;;1.37;1.00;;;32.20;27.50;;;;;;5086639;28;20426;-83
2022/07/31 09:49:03;;;;;;;1.05;0.40;;;32.30;28.30;;;;;;5070092;28;20437;-84
2022/07/31 09:51:44;;;;;;;0.65;0.40;;;32.40;27.80;;;;;;5069104;28;20456;-81
2022/07/31 09:54:30;;;;;;;1.80;0.30;;;32.40;27.60;;;;;;5073201;28;20454;-82
2022/07/31 09:56:57;;;;;;;0.80;0.30;;;32.40;27.10;;;;;;5107320;28;20414;-84
2022/07/31 09:59:25;;;;;;;2.92;0.50;;;32.40;27.40;;;;;;5069497;28;20468;-81
2022/07/31 10:01:53;;;;;;;0.40;0.30;;;32.40;26.10;;;;;;5076159;28;20413;-83
2022/07/31 10:04:22;;;;;;;1.40;0.30;;;32.40;27.20;;;;;;5073577;28;20406;-84
2022/07/31 10:06:51;;;;;;;0.98;0.30;;;32.60;27.20;;;;;;5070786;28;20492;-83
2022/07/31 10:09:20;;;;;;;1.00;0.35;;;32.70;27.10;;;;;;5075177;28;20809;-84
2022/07/31 10:11:48;;;;;;;0.75;0.30;;;32.80;27.60;;;;;;5074860;28;20406;-84
2022/07/31 10:14:28;;;;;;;0.50;0.30;;;33.00;27.30;;;;;;5080889;28;20414;-84
2022/07/31 10:16:58;;;;;;;0.65;0.30;;;33.00;26.90;;;;;;5069375;28;20412;-83
2022/07/31 10:19:33;;;;;;;0.73;0.30;;;33.10;26.40;;;;;;5105407;28;20452;-84
2022/07/31 10:22:03;;;;;;;0.30;0.30;;;33.20;26.70;;;;;;5063957;28;20438;-84
2022/07/31 10:24:42;;;;;;;0.50;0.30;;;33.30;27.60;;;;;;5078249;28;20383;-84
2022/07/31 10:27:09;;;;;;;1.08;0.30;;;33.40;27.10;;;;;;5076803;28;20460;-85
2022/07/31 10:29:38;;;;;;;1.10;0.30;;;33.60;26.40;;;;;;5065645;28;20412;-82
2022/07/31 10:32:06;;;;;;;0.50;0.30;;;33.60;25.80;;;;;;5074891;28;20485;-84
2022/07/31 10:34:34;;;;;;;1.33;0.30;;;33.60;25.20;;;;;;5074161;28;20445;-85
2022/07/31 10:37:15;;;;;;;0.30;0.30;;;33.40;25.80;;;;;;5077928;28;20548;-84
2022/07/31 10:40:08;;;;;;;0.75;0.30;;;33.30;25.10;;;;;;5074414;28;20456;-85
2022/07/31 10:42:51;;;;;;;0.30;0.30;;;33.20;26.10;;;;;;5053068;28;21035;-83
2022/07/31 10:45:18;;;;;;;0.70;0.32;;;33.20;26.60;;;;;;5064743;28;20909;-84
2022/07/31 10:47:59;;;;;;;0.30;0.30;;;33.20;26.40;;;;;;5070022;28;20410;-82
2022/07/31 10:50:30;;;;;;;0.50;0.30;;;33.40;26.40;;;;;;5104846;28;20476;-83
2022/07/31 10:53:14;;;;;;;0.32;0.25;;;33.40;26.50;;;;;;5071329;28;20426;-83
2022/07/31 10:55:42;;;;;;;1.15;0.40;;;33.60;26.10;;;;;;5071827;28;20398;-84
2022/07/31 10:58:14;;;;;;;1.00;0.30;;;33.60;25.70;;;;;;5068326;28;20442;-84
2022/07/31 11:00:41;;;;;;;0.95;0.30;;;33.80;26.30;;;;;;5086230;28;20433;-82
2022/07/31 11:03:21;;;;;;;0.77;0.38;;;33.90;25.50;;;;;;5075039;28;20467;-82
2022/07/31 11:05:59;;;;;;;0.68;0.30;;;34.00;25.10;;;;;;5064220;28;20813;-82
2022/07/31 11:08:43;;;;;;;0.70;0.40;;;34.10;26.40;;;;;;5093063;28;20409;-83
2022/07/31 11:11:10;;;;;;;0.40;0.30;;;34.20;25.90;;;;;;5073299;28;20406;-84
2022/07/31 11:13:48;;;;;;;0.97;0.30;;;34.30;25.60;;;;;;5073576;28;20434;-84
2022/07/31 11:16:16;;;;;;;1.20;0.40;;;34.30;24.50;;;;;;5067256;28;20414;-81
2022/07/31 11:18:55;;;;;;;0.70;0.30;;;34.30;25.00;;;;;;5073823;27;20421;-83
2022/07/31 11:21:38;;;;;;;0.35;0.30;;;34.30;25.60;;;;;;5072409;28;20437;-82
2022/07/31 11:24:20;;;;;;;1.80;0.40;;;34.30;25.70;;;;;;5072638;28;20407;-84
2022/07/31 11:26:51;;;;;;;0.45;0.20;;;34.30;25.70;;;;;;5071550;28;20446;-83
2022/07/31 11:29:31;;;;;;;0.52;0.50;;;34.30;25.50;;;;;;5067204;28;20446;-83
2022/07/31 11:32:18;;;;;;;1.10;0.40;;;34.50;25.30;;;;;;5074463;28;20890;-82
2022/07/31 11:34:56;;;;;;;0.90;0.40;;;34.50;25.20;;;;;;5069144;28;20431;-82
2022/07/31 11:37:29;;;;;;;1.00;0.30;;;34.40;24.30;;;;;;5086882;28;20411;-83
2022/07/31 11:40:12;;;;;;;0.60;0.30;;;34.30;25.10;;;;;;5069491;28;20437;-81
2022/07/31 11:42:43;;;;;;;0.60;0.30;;;34.30;25.40;;;;;;5068740;28;20771;-81
2022/07/31 11:45:10;;;;;;;1.00;0.30;;;34.40;25.90;;;;;;5065924;28;20411;-83
2022/07/31 11:47:46;;;;;;;1.00;0.40;;;34.60;26.40;;;;;;5071100;28;20418;-81
2022/07/31 11:50:43;;;;;;;1.75;0.40;;;34.80;25.20;;;;;;5070655;27;20475;-83
2022/07/31 11:53:11;;;;;;;1.13;0.30;;;34.80;24.80;;;;;;5066559;28;20813;-83
2022/07/31 11:55:52;;;;;;;1.80;0.40;;;34.90;25.20;;;;;;5104668;27;20403;-83
2022/07/31 11:58:20;;;;;;;0.38;0.30;;;34.90;24.30;;;;;;5071642;28;20403;-82
2022/07/31 12:00:59;;;;;;;1.00;0.30;;;34.80;24.90;;;;;;5074994;28;20450;-84
2022/07/31 12:03:35;;;;;;;0.50;0.30;;;34.80;24.80;;;;;;5071728;28;20418;-83
2022/07/31 12:06:04;;;;;;;0.90;0.40;;;34.80;24.30;;;;;;5072484;28;20820;-83
2022/07/31 12:08:33;;;;;;;0.63;0.30;;;34.70;25.00;;;;;;5069206;28;20415;-82
2022/07/31 12:11:03;;;;;;;0.73;0.30;;;34.70;25.40;;;;;;5068410;28;20417;-83
2022/07/31 12:13:31;;;;;;;2.30;0.60;;;34.70;25.40;;;;;;5057553;28;20413;-84
2022/07/31 12:16:05;;;;;;;0.70;0.30;;;34.80;26.10;;;;;;5084989;28;20453;-84
2022/07/31 12:18:52;;;;;;;0.60;0.30;;;34.80;24.80;;;;;;5063984;28;20412;-84
2022/07/31 12:21:28;;;;;;;0.50;0.30;;;34.90;25.10;;;;;;5086627;28;20490;-82
2022/07/31 12:23:57;;;;;;;0.40;0.30;;;35.00;25.10;;;;;;5079793;28;20413;-82
2022/07/31 12:26:32;;;;;;;0.50;0.30;;;35.10;25.10;;;;;;5087516;28;20890;-82
2022/07/31 12:29:06;;;;;;;0.47;0.30;;;35.30;25.10;;;;;;5071223;28;20882;-84
2022/07/31 12:31:45;;;;;;;0.60;0.30;;;35.40;24.90;;;;;;5065791;28;20451;-82
2022/07/31 12:34:23;;;;;;;1.88;0.50;;;35.50;25.20;;;;;;5070130;28;20480;-81
2022/07/31 12:37:11;;;;;;;1.20;0.40;;;35.50;24.70;;;;;;5103026;28;20460;-83
2022/07/31 12:39:46;;;;;;;0.63;0.30;;;35.60;25.70;;;;;;5071005;28;20985;-82
2022/07/31 12:42:26;;;;;;;1.02;0.30;;;35.70;24.90;;;;;;5064257;28;20880;-84
2022/07/31 12:44:59;;;;;;;0.68;0.40;;;35.70;25.00;;;;;;5072598;28;20410;-84
2022/07/31 12:47:45;;;;;;;0.70;0.40;;;35.80;24.80;;;;;;5066697;28;20437;-84
2022/07/31 12:50:21;;;;;;;1.20;0.30;;;35.80;24.40;;;;;;5101717;28;20806;-82
2022/07/31 12:52:48;;;;;;;0.98;0.40;;;35.80;24.20;;;;;;5103288;28;20405;-83
2022/07/31 12:55:15;;;;;;;0.90;0.50;;;35.80;25.20;;;;;;5102375;28;20460;-84
2022/07/31 12:57:43;;;;;;;0.40;0.40;;;35.90;24.90;;;;;;5068969;28;20833;-84
2022/07/31 13:00:21;;;;;;;0.50;0.40;;;36.00;24.40;;;;;;5073942;28;20417;-81
2022/07/31 13:02:49;;;;;;;1.33;0.40;;;36.00;24.40;;;;;;5062511;28;20407;-81
2022/07/31 13:05:16;;;;;;;0.40;0.30;;;36.10;24.40;;;;;;5069402;28;20460;-83